createdAt,value
2023-03-21T03:58:50.723Z,0.00
2023-03-21T03:59:46.884Z,0.00
2023-03-21T04:00:47.562Z,0.00
2023-03-21T04:01:46.912Z,0.00
2023-03-21T04:02:47.851Z,0.00
2023-03-21T04:03:50.673Z,0.00
2023-03-21T04:04:48.641Z,0.00
2023-03-21T04:05:48.714Z,0.00
2023-03-21T04:06:47.722Z,0.00
2023-03-21T04:07:47.783Z,0.00
2023-03-21T04:08:48.904Z,0.00
2023-03-21T04:09:47.993Z,0.00
2023-03-21T04:10:48.114Z,0.00
2023-03-21T04:11:49.745Z,0.00
2023-03-21T04:12:49.104Z,0.00
2023-03-21T04:13:49.465Z,0.00
2023-03-21T04:14:48.547Z,0.00
2023-03-21T04:15:48.580Z,0.00
2023-03-21T04:16:49.153Z,0.00
2023-03-21T04:17:49.193Z,0.00
2023-03-21T04:18:49.191Z,0.00
2023-03-21T04:19:49.284Z,0.00
2023-03-21T04:20:50.243Z,0.00
2023-03-21T04:21:49.514Z,0.00
2023-03-21T04:22:49.546Z,0.00
2023-03-21T04:23:50.929Z,0.00
2023-03-21T04:24:50.936Z,0.00
2023-03-21T04:25:56.411Z,0.00
2023-03-21T04:26:52.519Z,0.00
2023-03-21T04:27:51.050Z,0.00
2023-03-21T04:28:51.151Z,0.00
2023-03-21T04:29:51.289Z,0.00
2023-03-21T04:31:01.288Z,0.00
2023-03-21T04:31:52.692Z,0.00
2023-03-21T04:32:51.036Z,0.00
2023-03-21T04:33:51.000Z,0.00
2023-03-21T04:34:51.034Z,0.00
2023-03-21T04:35:52.124Z,0.00
2023-03-21T04:36:51.824Z,0.00
2023-03-21T04:37:51.446Z,0.00
2023-03-21T04:38:51.887Z,0.00
2023-03-21T04:39:51.984Z,0.00
2023-03-21T04:40:52.755Z,0.00
2023-03-21T04:41:52.017Z,0.00
2023-03-21T04:42:53.029Z,0.00
2023-03-21T04:43:52.711Z,0.00
2023-03-21T04:44:53.506Z,0.00
2023-03-21T04:46:04.428Z,0.00
2023-03-21T04:46:53.562Z,0.00
2023-03-21T04:47:53.220Z,0.00
2023-03-21T04:48:53.123Z,0.00
2023-03-21T04:49:53.254Z,0.00
2023-03-21T04:50:53.286Z,0.00
2023-03-21T04:51:54.223Z,0.00
2023-03-21T04:52:53.810Z,0.00
2023-03-21T04:53:53.794Z,0.00
2023-03-21T04:54:53.801Z,0.00
2023-03-21T04:55:55.569Z,0.00
2023-03-21T04:56:54.450Z,0.00
2023-03-21T04:57:55.514Z,0.00
2023-03-21T04:58:55.538Z,0.00
2023-03-21T04:59:55.332Z,0.00
2023-03-21T05:00:55.771Z,0.00
2023-03-21T05:01:55.574Z,0.00
2023-03-21T05:02:55.786Z,0.00
2023-03-21T05:03:55.564Z,0.00
2023-03-21T05:04:55.994Z,0.00
2023-03-21T05:05:55.226Z,0.00
2023-03-21T05:06:55.847Z,0.00
2023-03-21T05:07:56.886Z,0.00
2023-03-21T05:08:55.920Z,0.00
2023-03-21T05:09:56.996Z,0.00
2023-03-21T05:10:56.745Z,0.00
2023-03-21T05:11:56.393Z,0.00
2023-03-21T05:12:56.365Z,0.00
2023-03-21T05:13:56.497Z,0.00
2023-03-21T05:14:56.555Z,0.00
2023-03-21T05:15:58.218Z,0.00
2023-03-21T05:16:57.707Z,0.00
2023-03-21T05:17:57.665Z,0.00
2023-03-21T05:18:57.348Z,0.00
2023-03-21T05:19:57.124Z,0.00
2023-03-21T05:20:57.545Z,0.00
2023-03-21T05:21:57.431Z,0.00
2023-03-21T05:22:57.461Z,0.00
2023-03-21T05:23:58.149Z,0.00
2023-03-21T05:24:57.770Z,0.00
2023-03-21T05:25:58.706Z,0.00
2023-03-21T05:26:59.628Z,0.00
2023-03-21T05:27:58.999Z,0.00
2023-03-21T05:28:58.656Z,0.00
2023-03-21T05:29:58.656Z,0.00
2023-03-21T05:31:02.478Z,0.00
2023-03-21T05:31:59.727Z,0.00
2023-03-21T05:32:58.775Z,0.00
2023-03-21T05:33:59.804Z,0.00
2023-03-21T05:34:59.950Z,0.00
2023-03-21T05:36:00.024Z,0.00
2023-03-21T05:37:00.190Z,0.00
2023-03-21T05:37:59.439Z,0.00
2023-03-21T05:39:00.446Z,0.00
2023-03-21T05:40:00.035Z,0.00
2023-03-21T05:41:00.877Z,0.00
2023-03-21T05:42:00.883Z,0.00
2023-03-21T05:43:00.394Z,0.00
2023-03-21T05:44:00.163Z,0.00
2023-03-21T05:45:01.217Z,0.00
2023-03-21T05:46:00.505Z,0.00
2023-03-21T05:47:00.799Z,0.00
2023-03-21T05:48:00.884Z,0.00
2023-03-21T05:49:01.308Z,0.00
2023-03-21T05:50:01.466Z,0.00
2023-03-21T05:51:01.345Z,0.00
2023-03-21T05:52:01.531Z,0.00
2023-03-21T05:53:01.561Z,0.00
2023-03-21T05:54:01.674Z,0.00
2023-03-21T05:55:02.679Z,0.00
2023-03-21T05:56:02.788Z,0.00
2023-03-21T05:57:02.315Z,0.00
2023-03-21T05:58:02.610Z,0.00
2023-03-21T05:59:03.809Z,0.00
2023-03-21T06:00:03.597Z,0.00
2023-03-21T06:01:02.718Z,0.00
2023-03-21T06:02:03.560Z,0.00
2023-03-21T06:03:02.999Z,0.00
2023-03-21T06:06:19.250Z,0.00
2023-03-21T06:07:19.311Z,0.00
2023-03-21T06:08:19.866Z,0.00
2023-03-21T06:09:19.775Z,0.00
2023-03-21T06:10:19.971Z,0.00
2023-03-21T06:11:19.897Z,0.00
2023-03-21T06:12:20.414Z,0.00
2023-03-21T06:13:20.406Z,0.00
2023-03-21T06:14:20.362Z,0.00
2023-03-21T06:15:20.344Z,0.00
2023-03-21T06:16:20.813Z,0.00
2023-03-21T06:17:20.776Z,0.00
2023-03-21T06:18:20.790Z,0.00
2023-03-21T06:19:21.271Z,0.00
2023-03-21T06:20:21.167Z,0.00
2023-03-21T06:21:22.345Z,0.00
2023-03-21T06:22:22.325Z,0.00
2023-03-21T06:23:21.828Z,0.00
2023-03-21T06:24:21.957Z,0.00
2023-03-21T06:25:21.840Z,0.00
2023-03-21T06:26:21.864Z,0.00
2023-03-21T06:27:23.084Z,0.00
2023-03-21T06:28:22.281Z,0.00
2023-03-21T06:29:22.355Z,0.00
2023-03-21T06:30:23.716Z,0.00
2023-03-21T06:31:23.418Z,0.00
2023-03-21T06:32:23.511Z,0.00
2023-03-21T06:33:22.717Z,0.00
2023-03-21T06:34:22.822Z,0.00
2023-03-21T06:35:22.955Z,0.00
2023-03-21T06:36:23.105Z,0.00
2023-03-21T06:37:23.246Z,0.00
2023-03-21T06:38:23.416Z,0.00
2023-03-21T06:39:23.516Z,0.00
2023-03-21T06:40:24.660Z,0.00
2023-03-21T06:41:23.934Z,0.00
2023-03-21T06:42:24.061Z,0.00
2023-03-21T06:43:24.031Z,0.00
2023-03-21T06:44:24.100Z,5.62
2023-03-21T06:45:24.266Z,0.00
2023-03-21T06:46:24.406Z,0.00
2023-03-21T06:47:24.534Z,5.62
2023-03-21T06:48:24.820Z,5.62
2023-03-21T06:49:24.753Z,5.62
2023-03-21T06:50:24.979Z,5.62
2023-03-21T06:51:25.052Z,5.62
2023-03-21T06:52:25.199Z,5.62
2023-03-21T06:53:25.470Z,5.62
2023-03-21T06:54:25.387Z,5.62
2023-03-21T06:55:25.532Z,5.62
2023-03-21T06:56:25.639Z,5.62
2023-03-21T06:57:25.885Z,5.62
2023-03-21T06:58:25.890Z,5.62
2023-03-21T06:59:26.029Z,5.62
2023-03-21T07:00:26.204Z,5.62
2023-03-21T07:01:26.555Z,5.62
2023-03-21T07:02:26.455Z,5.62
2023-03-21T07:03:27.852Z,5.62
2023-03-21T07:04:26.710Z,5.62
2023-03-21T07:05:27.008Z,5.62
2023-03-21T07:06:26.987Z,5.62
2023-03-21T07:07:27.406Z,5.62
2023-03-21T07:08:27.289Z,5.62
2023-03-21T07:09:27.420Z,5.62
2023-03-21T07:10:27.613Z,5.62
2023-03-21T07:11:28.669Z,5.62
2023-03-21T07:12:27.826Z,5.62
2023-03-21T07:13:27.979Z,5.62
2023-03-21T07:14:28.081Z,5.62
2023-03-21T07:15:28.232Z,5.62
2023-03-21T07:16:28.611Z,5.62
2023-03-21T07:17:28.525Z,5.62
2023-03-21T07:18:29.022Z,5.62
2023-03-21T07:19:28.841Z,5.62
2023-03-21T07:20:28.998Z,5.62
2023-03-21T07:21:30.227Z,5.62
2023-03-21T07:22:30.170Z,5.62
2023-03-21T07:23:29.464Z,5.62
2023-03-21T07:24:29.567Z,5.62
2023-03-21T07:25:29.731Z,5.62
2023-03-21T07:26:29.915Z,5.62
2023-03-21T07:27:30.020Z,5.62
2023-03-21T07:28:30.229Z,5.62
2023-03-21T07:29:30.192Z,5.62
2023-03-21T07:30:30.403Z,5.62
2023-03-21T07:31:30.712Z,5.62
2023-03-21T07:32:30.538Z,5.62
2023-03-21T07:33:31.554Z,5.62
2023-03-21T07:34:30.798Z,5.62
2023-03-21T07:35:30.976Z,5.62
2023-03-21T07:36:31.143Z,5.62
2023-03-21T07:39:48.638Z,5.62
2023-03-21T07:40:48.671Z,5.62
2023-03-21T07:41:49.674Z,5.62
2023-03-21T07:42:49.838Z,5.62
2023-03-21T07:43:48.995Z,5.62
2023-03-21T07:44:49.205Z,5.62
2023-03-21T07:45:49.347Z,11.25
2023-03-21T07:47:10.668Z,11.25
2023-03-21T07:47:49.664Z,11.25
2023-03-21T07:48:50.008Z,11.25
2023-03-21T07:49:49.775Z,11.25
2023-03-21T07:50:49.986Z,11.25
2023-03-21T07:51:49.998Z,11.25
2023-03-21T07:52:50.138Z,11.25
2023-03-21T07:53:50.330Z,5.62
2023-03-21T07:54:50.360Z,5.62
2023-03-21T07:55:50.501Z,5.62
2023-03-21T07:56:50.586Z,5.62
2023-03-21T07:57:50.708Z,5.62
2023-03-21T07:58:50.880Z,5.62
2023-03-21T07:59:50.971Z,5.62
2023-03-21T08:00:51.112Z,5.62
2023-03-21T08:01:51.275Z,5.62
2023-03-21T08:02:51.847Z,5.62
2023-03-21T08:03:51.604Z,5.62
2023-03-21T08:04:51.723Z,5.62
2023-03-21T08:05:51.857Z,5.62
2023-03-21T08:06:52.069Z,5.62
2023-03-21T08:07:52.145Z,5.62
2023-03-21T08:08:53.216Z,5.62
2023-03-21T08:09:52.407Z,5.62
2023-03-21T08:10:52.598Z,11.25
2023-03-21T08:11:53.713Z,5.62
2023-03-21T08:12:52.908Z,5.62
2023-03-21T08:13:53.053Z,5.62
2023-03-21T08:14:53.222Z,5.62
2023-03-21T08:15:53.550Z,11.25
2023-03-21T08:16:53.787Z,11.25
2023-03-21T08:17:53.600Z,11.25
2023-03-21T08:18:54.621Z,11.25
2023-03-21T08:19:53.885Z,11.25
2023-03-21T08:20:53.998Z,11.25
2023-03-21T08:21:55.454Z,11.25
2023-03-21T08:22:54.191Z,5.62
2023-03-21T08:23:54.266Z,11.25
2023-03-21T08:24:56.384Z,11.25
2023-03-21T08:25:54.544Z,11.25
2023-03-21T08:26:54.753Z,11.25
2023-03-21T08:27:55.791Z,11.25
2023-03-21T08:28:55.941Z,11.25
2023-03-21T08:29:56.047Z,11.25
2023-03-21T08:30:55.238Z,11.25
2023-03-21T08:31:55.389Z,11.25
2023-03-21T08:32:55.545Z,11.25
2023-03-21T08:33:55.737Z,11.25
2023-03-21T08:34:55.745Z,5.62
2023-03-21T08:35:56.035Z,5.62
2023-03-21T08:36:56.048Z,5.62
2023-03-21T08:37:56.184Z,5.62
2023-03-21T08:38:57.346Z,11.25
2023-03-21T08:39:56.504Z,11.25
2023-03-21T08:40:58.560Z,11.25
2023-03-21T08:41:58.189Z,11.25
2023-03-21T08:42:56.812Z,11.25
2023-03-21T08:43:56.955Z,11.25
2023-03-21T08:44:57.206Z,11.25
2023-03-21T08:45:57.467Z,11.25
2023-03-21T08:46:57.469Z,11.25
2023-03-21T08:47:57.670Z,11.25
2023-03-21T08:48:57.738Z,5.62
2023-03-21T08:49:59.167Z,5.62
2023-03-21T08:50:58.813Z,5.62
2023-03-21T08:51:58.111Z,5.62
2023-03-21T08:52:58.242Z,5.62
2023-03-21T08:53:58.426Z,11.25
2023-03-21T08:54:58.555Z,11.25
2023-03-21T08:55:58.888Z,5.62
2023-03-21T08:56:58.867Z,5.62
2023-03-21T08:57:59.039Z,11.25
2023-03-21T08:58:59.176Z,11.25
2023-03-21T08:59:59.433Z,5.62
2023-03-21T09:00:59.402Z,11.25
2023-03-21T09:01:59.647Z,5.62
2023-03-21T09:02:59.803Z,5.62
2023-03-21T09:04:01.816Z,11.25
2023-03-21T09:05:00.078Z,11.25
2023-03-21T09:06:00.129Z,11.25
2023-03-21T09:07:00.263Z,11.25
2023-03-21T09:08:00.392Z,11.25
2023-03-21T09:09:00.667Z,11.25
2023-03-21T09:10:19.791Z,11.25
2023-03-21T09:11:02.814Z,16.88
2023-03-21T09:12:01.012Z,16.88
2023-03-21T09:13:01.211Z,11.25
2023-03-21T09:14:01.327Z,16.88
2023-03-21T09:15:01.478Z,16.88
2023-03-21T09:16:01.679Z,16.88
2023-03-21T09:17:01.746Z,16.88
2023-03-21T09:18:01.861Z,16.88
2023-03-21T09:19:02.033Z,16.88
2023-03-21T09:20:02.203Z,16.88
2023-03-21T09:21:02.288Z,16.88
2023-03-21T09:22:02.390Z,16.88
2023-03-21T09:23:02.569Z,16.88
2023-03-21T09:24:02.720Z,11.25
2023-03-21T09:25:02.943Z,16.88
2023-03-21T09:26:03.031Z,11.25
2023-03-21T09:27:03.106Z,16.88
2023-03-21T09:28:05.285Z,16.88
2023-03-21T09:29:04.484Z,16.88
2023-03-21T09:30:05.486Z,16.88
2023-03-21T09:32:19.804Z,16.88
2023-03-21T09:33:20.180Z,22.50
2023-03-21T09:34:20.904Z,22.50
2023-03-21T09:35:20.479Z,22.50
2023-03-21T09:36:20.216Z,22.50
2023-03-21T09:37:20.503Z,16.88
2023-03-21T09:38:20.401Z,22.50
2023-03-21T09:39:20.533Z,22.50
2023-03-21T09:40:20.837Z,28.12
2023-03-21T09:41:20.870Z,22.50
2023-03-21T09:42:21.197Z,28.12
2023-03-21T09:43:21.378Z,28.12
2023-03-21T09:44:21.499Z,28.12
2023-03-21T09:45:21.418Z,33.75
2023-03-21T09:46:21.871Z,22.50
2023-03-21T09:47:22.414Z,28.12
2023-03-21T09:48:21.876Z,28.12
2023-03-21T09:49:21.939Z,28.12
2023-03-21T09:50:22.074Z,22.50
2023-03-21T09:51:22.187Z,28.12
2023-03-21T09:52:22.355Z,28.12
2023-03-21T09:53:22.594Z,28.12
2023-03-21T09:54:22.760Z,28.12
2023-03-21T09:55:23.028Z,28.12
2023-03-21T09:56:22.908Z,28.12
2023-03-21T09:57:23.406Z,28.12
2023-03-21T09:58:23.325Z,28.12
2023-03-21T09:59:23.218Z,28.12
2023-03-21T10:00:23.471Z,28.12
2023-03-21T10:01:23.576Z,28.12
2023-03-21T10:02:23.772Z,28.12
2023-03-21T10:13:08.968Z,22.50
2023-03-21T10:14:09.187Z,22.50
2023-03-21T10:15:09.132Z,22.50
2023-03-21T10:16:09.258Z,22.50
2023-03-21T10:17:09.378Z,22.50
2023-03-21T10:18:09.488Z,16.88
2023-03-21T10:19:09.654Z,22.50
2023-03-21T10:20:11.578Z,22.50
2023-03-21T10:21:09.853Z,22.50
2023-03-21T10:22:10.070Z,16.88
2023-03-21T10:23:11.084Z,16.88
2023-03-21T10:24:10.264Z,11.25
2023-03-21T10:25:10.379Z,11.25
2023-03-21T10:26:14.716Z,16.88
2023-03-21T10:27:13.820Z,11.25
2023-03-21T10:28:10.827Z,22.50
2023-03-21T10:29:11.976Z,22.50
2023-03-21T10:30:11.134Z,16.88
2023-03-21T10:31:11.364Z,22.50
2023-03-21T10:32:11.872Z,22.50
2023-03-21T10:33:11.604Z,28.12
2023-03-21T10:34:11.706Z,22.50
2023-03-21T10:35:11.902Z,28.12
2023-03-21T10:36:12.080Z,22.50
2023-03-21T10:37:13.100Z,28.12
2023-03-21T10:38:12.331Z,22.50
2023-03-21T10:39:12.403Z,22.50
2023-03-21T10:40:12.454Z,22.50
2023-03-21T10:41:13.599Z,28.12
2023-03-21T10:42:13.739Z,16.88
2023-03-21T10:43:12.952Z,22.50
2023-03-21T10:44:13.040Z,22.50
2023-03-21T10:45:13.200Z,22.50
2023-03-21T10:46:14.442Z,22.50
2023-03-21T10:47:13.833Z,16.88
2023-03-21T10:48:13.776Z,22.50
2023-03-21T10:49:14.360Z,16.88
2023-03-21T10:50:15.372Z,11.25
2023-03-21T10:51:14.112Z,11.25
2023-03-21T10:52:14.337Z,11.25
2023-03-21T10:53:14.844Z,11.25
2023-03-21T10:54:15.986Z,16.88
2023-03-21T10:55:15.593Z,16.88
2023-03-21T10:56:16.210Z,22.50
2023-03-21T10:57:16.421Z,22.50
2023-03-21T10:58:15.038Z,22.50
2023-03-21T10:59:15.138Z,22.50
2023-03-21T11:00:15.205Z,22.50
2023-03-21T11:01:15.673Z,22.50
2023-03-21T11:02:15.769Z,22.50
2023-03-21T11:03:15.650Z,22.50
2023-03-21T11:04:15.926Z,22.50
2023-03-21T11:05:15.906Z,22.50
2023-03-21T11:06:16.009Z,22.50
2023-03-21T11:07:17.637Z,22.50
2023-03-21T11:08:16.415Z,22.50
2023-03-21T11:09:16.905Z,22.50
2023-03-21T11:10:20.006Z,16.88
2023-03-21T11:11:18.295Z,22.50
2023-03-21T11:12:18.287Z,16.88
2023-03-21T11:13:17.052Z,16.88
2023-03-21T11:14:18.193Z,22.50
2023-03-21T11:15:17.371Z,16.88
2023-03-21T11:16:21.626Z,16.88
2023-03-21T11:17:21.367Z,22.50
2023-03-21T11:18:18.129Z,22.50
2023-03-21T11:19:17.897Z,22.50
2023-03-21T11:20:20.709Z,22.50
2023-03-21T11:21:18.166Z,22.50
2023-03-21T11:22:18.385Z,16.88
2023-03-21T11:23:20.715Z,28.12
2023-03-21T11:24:18.997Z,22.50
2023-03-21T11:25:18.903Z,28.12
2023-03-21T11:26:18.970Z,28.12
2023-03-21T11:27:19.331Z,28.12
2023-03-21T11:28:20.033Z,22.50
2023-03-21T11:29:19.500Z,22.50
2023-03-21T11:30:20.481Z,16.88
2023-03-21T11:31:21.638Z,22.50
2023-03-21T11:32:21.162Z,16.88
2023-03-21T11:33:19.788Z,16.88
2023-03-21T11:34:20.055Z,16.88
2023-03-21T11:35:20.051Z,11.25
2023-03-21T11:36:20.202Z,11.25
2023-03-21T11:37:20.352Z,11.25
2023-03-21T11:38:20.491Z,11.25
2023-03-21T11:39:20.546Z,11.25
2023-03-21T11:40:20.698Z,11.25
2023-03-21T11:41:20.844Z,11.25
2023-03-21T11:42:21.949Z,11.25
2023-03-21T11:43:21.100Z,11.25
2023-03-21T11:44:21.376Z,16.88
2023-03-21T11:45:21.504Z,11.25
2023-03-21T11:46:22.511Z,11.25
2023-03-21T11:47:21.680Z,16.88
2023-03-21T11:48:21.804Z,16.88
2023-03-21T11:49:21.994Z,11.25
2023-03-21T11:52:39.361Z,16.88
2023-03-21T11:54:55.597Z,16.88
2023-03-21T11:55:55.606Z,16.88
2023-03-21T11:56:56.020Z,16.88
2023-03-21T11:57:57.946Z,22.50
2023-03-21T11:58:56.495Z,22.50
2023-03-21T11:59:56.518Z,22.50
2023-03-21T12:00:56.393Z,22.50
2023-03-21T12:01:56.530Z,22.50
2023-03-21T12:02:56.975Z,28.12
2023-03-21T12:03:57.175Z,28.12
2023-03-21T12:04:56.986Z,28.12
2023-03-21T12:05:57.919Z,33.75
2023-03-21T12:06:57.193Z,33.75
2023-03-21T12:07:57.422Z,28.12
2023-03-21T12:08:57.597Z,28.12
2023-03-21T12:09:57.855Z,28.12
2023-03-21T12:10:57.810Z,28.12
2023-03-21T12:11:58.570Z,22.50
2023-03-21T12:12:58.137Z,22.50
2023-03-21T12:13:58.649Z,22.50
2023-03-21T12:14:59.106Z,22.50
2023-03-21T12:15:59.106Z,22.50
2023-03-21T12:17:00.863Z,22.50
2023-03-21T12:17:59.077Z,22.50
2023-03-21T12:18:58.965Z,22.50
2023-03-21T12:19:59.184Z,22.50
2023-03-21T12:21:00.606Z,22.50
2023-03-21T12:21:59.628Z,16.88
2023-03-21T12:22:59.491Z,22.50
2023-03-21T12:23:59.820Z,16.88
2023-03-21T12:24:59.792Z,22.50
2023-03-21T12:26:00.012Z,22.50
2023-03-21T12:27:00.410Z,16.88
2023-03-21T12:28:02.845Z,16.88
2023-03-21T12:29:00.325Z,16.88
2023-03-21T12:30:00.629Z,16.88
2023-03-21T12:31:01.525Z,16.88
2023-03-21T12:32:00.662Z,16.88
2023-03-21T12:33:00.793Z,16.88
2023-03-21T12:34:01.879Z,16.88
2023-03-21T12:35:01.027Z,16.88
2023-03-21T12:36:01.257Z,16.88
2023-03-21T12:37:01.316Z,16.88
2023-03-21T12:38:01.545Z,16.88
2023-03-21T12:39:01.649Z,16.88
2023-03-21T12:40:02.045Z,16.88
2023-03-21T12:41:01.868Z,16.88
2023-03-21T12:42:02.042Z,16.88
2023-03-21T12:43:02.154Z,16.88
2023-03-21T12:44:02.313Z,16.88
2023-03-21T12:45:06.247Z,16.88
2023-03-21T12:46:04.056Z,16.88
2023-03-21T12:47:02.693Z,16.88
2023-03-21T12:48:03.868Z,16.88
2023-03-21T12:49:03.008Z,11.25
2023-03-21T12:50:03.114Z,16.88
2023-03-21T12:51:03.328Z,16.88
2023-03-21T12:52:03.432Z,16.88
2023-03-21T12:53:03.584Z,16.88
2023-03-21T12:54:04.601Z,11.25
2023-03-21T12:55:03.868Z,11.25
2023-03-21T12:56:04.004Z,11.25
2023-03-21T12:57:04.303Z,5.62
2023-03-21T12:58:04.389Z,11.25
2023-03-21T12:59:04.433Z,16.88
2023-03-21T13:00:04.535Z,16.88
2023-03-21T13:01:05.699Z,16.88
2023-03-21T13:02:05.807Z,11.25
2023-03-21T13:03:05.964Z,11.25
2023-03-21T13:04:05.370Z,16.88
2023-03-21T13:05:05.487Z,16.88
2023-03-21T13:06:05.503Z,11.25
2023-03-21T13:07:05.981Z,16.88
2023-03-21T13:08:06.715Z,16.88
2023-03-21T13:09:05.853Z,16.88
2023-03-21T13:10:06.216Z,16.88
2023-03-21T13:11:06.021Z,16.88
2023-03-21T13:12:06.181Z,16.88
2023-03-21T13:13:06.575Z,16.88
2023-03-21T13:14:06.681Z,16.88
2023-03-21T13:15:12.491Z,16.88
2023-03-21T13:16:07.836Z,16.88
2023-03-21T13:17:07.010Z,11.25
2023-03-21T13:18:08.078Z,11.25
2023-03-21T13:19:07.253Z,11.25
2023-03-21T13:20:07.394Z,11.25
2023-03-21T13:21:07.540Z,11.25
2023-03-21T13:22:07.689Z,11.25
2023-03-21T13:23:07.768Z,11.25
2023-03-21T13:24:08.290Z,11.25
2023-03-21T13:25:08.031Z,16.88
2023-03-21T13:26:08.217Z,16.88
2023-03-21T13:27:08.331Z,22.50
2023-03-21T13:28:08.602Z,22.50
2023-03-21T13:29:08.606Z,28.12
2023-03-21T13:30:08.904Z,28.12
2023-03-21T13:31:08.846Z,28.12
2023-03-21T13:32:09.003Z,28.12
2023-03-21T13:35:26.683Z,22.50
2023-03-21T13:36:26.636Z,22.50
2023-03-21T13:37:26.981Z,33.75
2023-03-21T13:38:26.891Z,39.38
2023-03-21T13:39:27.064Z,45.00
2023-03-21T13:40:28.125Z,45.00
2023-03-21T13:41:27.585Z,45.00
2023-03-21T13:42:31.352Z,39.38
2023-03-21T13:43:29.009Z,33.75
2023-03-21T13:45:43.237Z,22.50
2023-03-21T13:46:52.890Z,22.50
2023-03-21T13:47:44.300Z,22.50
2023-03-21T13:48:49.390Z,22.50
2023-03-21T13:49:44.499Z,22.50
2023-03-21T13:50:43.686Z,22.50
2023-03-21T13:51:43.749Z,22.50
2023-03-21T13:52:44.354Z,16.88
2023-03-21T13:53:44.542Z,16.88
2023-03-21T13:54:44.518Z,16.88
2023-03-21T13:55:44.540Z,22.50
2023-03-21T13:56:44.519Z,28.12
2023-03-21T13:57:44.638Z,28.12
2023-03-21T13:58:44.733Z,28.12
2023-03-21T13:59:45.398Z,28.12
2023-03-21T14:00:45.142Z,22.50
2023-03-21T14:01:45.220Z,16.88
2023-03-21T14:02:45.230Z,16.88
2023-03-21T14:03:45.553Z,11.25
2023-03-21T14:05:03.737Z,11.25
2023-03-21T14:05:46.680Z,11.25
2023-03-21T14:06:45.894Z,11.25
2023-03-21T14:07:46.873Z,16.88
2023-03-21T14:08:46.348Z,16.88
2023-03-21T14:09:46.282Z,16.88
2023-03-21T14:10:46.608Z,16.88
2023-03-21T14:11:47.152Z,22.50
2023-03-21T14:12:46.876Z,28.12
2023-03-21T14:13:51.331Z,33.75
2023-03-21T14:14:48.026Z,33.75
2023-03-21T14:15:55.279Z,22.50
2023-03-21T14:17:47.424Z,22.50
2023-03-21T14:18:54.123Z,22.50
2023-03-21T14:19:48.507Z,22.50
2023-03-21T14:20:47.593Z,22.50
2023-03-21T14:21:47.895Z,22.50
2023-03-21T14:22:49.304Z,22.50
2023-03-21T14:23:47.975Z,22.50
2023-03-21T14:24:48.493Z,22.50
2023-03-21T14:25:48.380Z,22.50
2023-03-21T14:26:48.404Z,16.88
2023-03-21T14:27:48.504Z,16.88
2023-03-21T14:28:48.585Z,16.88
2023-03-21T14:29:48.856Z,16.88
2023-03-21T14:30:49.085Z,16.88
2023-03-21T14:31:49.953Z,16.88
2023-03-21T14:32:49.260Z,16.88
2023-03-21T14:33:49.694Z,16.88
2023-03-21T14:34:49.472Z,16.88
2023-03-21T14:35:50.183Z,16.88
2023-03-21T14:36:57.536Z,16.88
2023-03-21T14:37:51.243Z,16.88
2023-03-21T14:38:50.082Z,11.25
2023-03-21T14:39:50.152Z,11.25
2023-03-21T14:40:50.331Z,11.25
2023-03-21T14:41:50.454Z,11.25
2023-03-21T14:42:50.649Z,11.25
2023-03-21T14:43:50.920Z,11.25
2023-03-21T14:44:55.171Z,11.25
2023-03-21T14:45:52.109Z,11.25
2023-03-21T14:46:51.668Z,11.25
2023-03-21T14:47:52.279Z,11.25
2023-03-21T14:48:51.400Z,11.25
2023-03-21T14:49:51.572Z,11.25
2023-03-21T14:50:51.595Z,11.25
2023-03-21T14:51:51.768Z,11.25
2023-03-21T14:52:51.857Z,11.25
2023-03-21T14:53:52.011Z,11.25
2023-03-21T14:54:52.137Z,11.25
2023-03-21T14:55:52.345Z,11.25
2023-03-21T14:56:52.431Z,11.25
2023-03-21T14:57:54.018Z,5.62
2023-03-21T14:58:52.762Z,5.62
2023-03-21T14:59:53.323Z,5.62
2023-03-21T15:00:52.983Z,5.62
2023-03-21T15:01:53.238Z,11.25
2023-03-21T15:02:53.334Z,11.25
2023-03-21T15:03:53.390Z,11.25
2023-03-21T15:04:53.631Z,11.25
2023-03-21T15:05:53.807Z,11.25
2023-03-21T15:06:54.862Z,11.25
2023-03-21T15:10:13.139Z,11.25
2023-03-21T15:11:11.349Z,11.25
2023-03-21T15:12:10.719Z,11.25
2023-03-21T15:13:11.720Z,11.25
2023-03-21T15:14:10.746Z,11.25
2023-03-21T15:15:10.884Z,11.25
2023-03-21T15:16:11.067Z,11.25
2023-03-21T15:17:12.251Z,11.25
2023-03-21T15:18:11.370Z,11.25
2023-03-21T15:19:11.518Z,11.25
2023-03-21T15:20:12.706Z,11.25
2023-03-21T15:21:12.742Z,11.25
2023-03-21T15:22:11.900Z,11.25
2023-03-21T15:23:12.934Z,11.25
2023-03-21T15:24:13.084Z,11.25
2023-03-21T15:25:12.314Z,11.25
2023-03-21T15:26:12.796Z,11.25
2023-03-21T15:27:12.845Z,11.25
2023-03-21T15:28:12.816Z,11.25
2023-03-21T15:29:12.862Z,11.25
2023-03-21T15:30:14.392Z,11.25
2023-03-21T15:31:13.567Z,11.25
2023-03-21T15:32:14.130Z,11.25
2023-03-21T15:33:14.309Z,11.25
2023-03-21T15:34:13.718Z,11.25
2023-03-21T15:35:13.655Z,11.25
2023-03-21T15:36:14.033Z,11.25
2023-03-21T15:37:14.158Z,11.25
2023-03-21T15:38:14.253Z,11.25
2023-03-21T15:39:14.202Z,11.25
2023-03-21T15:40:15.230Z,11.25
2023-03-21T15:41:14.507Z,11.25
2023-03-21T15:42:15.519Z,11.25
2023-03-21T15:43:16.349Z,11.25
2023-03-21T15:44:15.734Z,11.25
2023-03-21T15:45:15.368Z,5.62
2023-03-21T15:46:15.570Z,5.62
2023-03-21T15:47:15.563Z,5.62
2023-03-21T15:48:15.544Z,5.62
2023-03-21T15:49:15.469Z,5.62
2023-03-21T15:50:15.558Z,5.62
2023-03-21T15:51:15.783Z,5.62
2023-03-21T15:52:16.718Z,5.62
2023-03-21T15:53:16.895Z,5.62
2023-03-21T15:54:16.423Z,5.62
2023-03-21T15:55:16.567Z,5.62
2023-03-21T15:56:16.731Z,5.62
2023-03-21T15:57:17.345Z,5.62
2023-03-21T15:58:16.899Z,5.62
2023-03-21T15:59:16.803Z,11.25
2023-03-21T16:00:17.229Z,11.25
2023-03-21T16:01:17.962Z,11.25
2023-03-21T16:12:27.978Z,11.25
2023-03-21T16:13:25.218Z,5.62
2023-03-21T16:14:25.859Z,5.62
2023-03-21T16:15:25.111Z,5.62
2023-03-21T16:16:25.362Z,11.25
2023-03-21T16:17:25.362Z,11.25
2023-03-21T16:18:26.349Z,11.25
2023-03-21T16:19:25.954Z,11.25
2023-03-21T16:20:26.596Z,11.25
2023-03-21T16:21:26.719Z,11.25
2023-03-21T16:22:26.114Z,11.25
2023-03-21T16:23:47.941Z,11.25
2023-03-21T16:24:26.634Z,11.25
2023-03-21T16:25:27.278Z,11.25
2023-03-21T16:26:27.674Z,5.62
2023-03-21T16:27:27.674Z,11.25
2023-03-21T16:28:27.720Z,11.25
2023-03-21T16:29:27.140Z,11.25
2023-03-21T16:30:28.417Z,11.25
2023-03-21T16:31:28.016Z,11.25
2023-03-21T16:32:27.259Z,11.25
2023-03-21T16:33:28.584Z,11.25
2023-03-21T16:34:28.094Z,11.25
2023-03-21T16:35:28.012Z,11.25
2023-03-21T16:36:28.034Z,11.25
2023-03-21T16:37:28.071Z,11.25
2023-03-21T16:38:28.498Z,11.25
2023-03-21T16:39:28.185Z,11.25
2023-03-21T16:40:28.320Z,11.25
2023-03-21T16:41:29.445Z,11.25
2023-03-21T16:42:29.507Z,11.25
2023-03-21T16:43:29.184Z,11.25
2023-03-21T16:44:29.295Z,11.25
2023-03-21T16:45:29.265Z,11.25
2023-03-21T16:46:29.405Z,11.25
2023-03-21T16:47:29.454Z,11.25
2023-03-21T16:48:29.627Z,11.25
2023-03-21T16:49:29.494Z,11.25
2023-03-21T16:50:29.618Z,11.25
2023-03-21T16:51:31.152Z,11.25
2023-03-21T16:52:30.089Z,5.62
2023-03-21T16:53:30.931Z,5.62
2023-03-21T16:54:30.614Z,5.62
2023-03-21T16:55:31.264Z,5.62
2023-03-21T16:56:31.368Z,5.62
2023-03-21T16:57:31.736Z,5.62
2023-03-21T16:58:31.710Z,5.62
2023-03-21T16:59:30.811Z,5.62
2023-03-21T17:00:30.897Z,5.62
2023-03-21T17:01:32.517Z,5.62
2023-03-21T17:02:31.122Z,5.62
2023-03-21T17:03:32.272Z,11.25
2023-03-21T17:04:52.507Z,11.25
2023-03-21T17:05:32.638Z,5.62
2023-03-21T17:06:32.032Z,5.62
2023-03-21T17:07:31.984Z,5.62
2023-03-21T17:08:32.015Z,5.62
2023-03-21T17:09:32.164Z,5.62
2023-03-21T17:10:33.135Z,5.62
2023-03-21T17:11:33.281Z,5.62
2023-03-21T17:12:32.412Z,5.62
2023-03-21T17:13:33.434Z,5.62
2023-03-21T17:14:33.548Z,5.62
2023-03-21T17:15:34.048Z,0.00
2023-03-21T17:16:33.137Z,0.00
2023-03-21T17:17:33.055Z,0.00
2023-03-21T17:18:33.354Z,0.00
2023-03-21T17:19:33.593Z,0.00
2023-03-21T17:20:33.549Z,0.00
2023-03-21T17:21:33.778Z,0.00
2023-03-21T17:22:34.764Z,0.00
2023-03-21T17:23:34.610Z,0.00
2023-03-21T17:24:34.214Z,0.00
2023-03-21T17:25:34.466Z,0.00
2023-03-21T17:26:34.577Z,0.00
2023-03-21T17:27:34.613Z,0.00
2023-03-21T17:28:34.638Z,0.00
2023-03-21T17:29:34.720Z,0.00
2023-03-21T17:30:35.015Z,0.00
2023-03-21T17:33:52.404Z,0.00
2023-03-21T17:34:52.404Z,0.00
2023-03-21T17:35:52.470Z,0.00
2023-03-21T17:36:51.727Z,0.00
2023-03-21T17:37:52.992Z,0.00
2023-03-21T17:38:53.004Z,0.00
2023-03-21T17:39:53.032Z,0.00
2023-03-21T17:40:53.045Z,0.00
2023-03-21T17:41:52.432Z,0.00